Terminal Aerodrome Forecast
Issued by NWS

Home | Current Version | Previous Version | Text Only | Print | Product List | Glossary Off
Versions: 1 2 3 4 5 6 7 8 9 10 11 12 13 14 15 16 17

000
FTUS42 KMHX 240805 AAA
TAFOAJ
TAF AMD
KOAJ 240805Z 2408/2506 00000KT P6SM SKC
      TEMPO 2409/2412 3SM BR
     FM241200 09005KT P6SM SKC
     FM241500 12008KT P6SM SCT070
      AMD LTD TO CLD VIS AND WIND=

USA.gov is the U.S. government's official web portal to all federal, state and local government web resources and services.